Thunder radar more information blitzortung!


avis per Pluja more information rain snow radar


Visita la nostra xarxa de llocs de meteo:

Template documentation
and downloads

And another site



Rain From: 17-10-2018 23:00 Until: 18-10-2018 16:59 warning for: Rain Level: Yellow info button

Pagina Historial Weather Underground text

Diari Resum Juliol 27, 2017 Unitats:  Tant    Imperial   Mètric
« Previous Dia
SegĂźent Dia »
Diari Setmana Mensual Anual Personalitzada
  Maxima: Minima: Media:
Temperatura: TemperatureC °F /  -17.8 °C 18.0 °F /  -7.8 °C 27.3 °F /  -2.6 °C
Punt de rosada: DewpointC °F /  -17.8 °C 14.0 °F /  -10 °C 17.5 °F /  -8.1 °C
Humitat: Humidity % 42 % 57 %
Wind Speed: WindSpeedKMH mph /  0 km/h - 6 mph /  9.7 km/h
RĂ fegues de vent: WindSpeedGustKMH mph /  0 km/h - -
Vent:- - SSW
Pression baro: PressurehPa in /  0 hPa 1009.0 in /  34164.7 hPa -
Precipitacions: 0.0 in /  0 mm    
Historical Graphs
 
 
Dades de taula per Juliol 27, 2017
Temps Temperatura Punt de rosada Pression baro Vent Wind Speed RĂ fegues de vent Humitat Rainfall Rate (Hourly)
TemperatureC °F /  -17.8 °C DewpointC °F /  -17.8 °C PressurehPa in /  0 hPa Calm     Humidity % HourlyPrecipMM in /  0 mm
00:01 21.7 °F /  -5.7 °C 14.3 °F /  -9.8 °C 1013.8 in /  34327.3 hPa NE 1.9 mph /  3.1 km/h 1.9 mph /  3.1 km/h 63 % 0.0 in /  0 mm
00:05 18.7 °F /  -7.4 °C 14.4 °F /  -9.8 °C 1013.8 in /  34327.3 hPa Calm     76 % 0.0 in /  0 mm
00:15 18.4 °F /  -7.6 °C 14.1 °F /  -9.9 °C 1013.8 in /  34327.3 hPa Calm   3.2 mph /  5.1 km/h 76 % 0.0 in /  0 mm
00:25 18.4 °F /  -7.6 °C 14.1 °F /  -9.9 °C 1013.8 in /  34327.3 hPa Calm     76 % 0.0 in /  0 mm
00:35 18.4 °F /  -7.6 °C 14.3 °F /  -9.8 °C 1013.8 in /  34327.3 hPa SW 1.6 mph /  2.6 km/h 1.6 mph /  2.6 km/h 77 % 0.0 in /  0 mm
00:45 18.2 °F /  -7.7 °C 14.1 °F /  -9.9 °C 1013.8 in /  34327.3 hPa Calm   1.6 mph /  2.6 km/h 77 % 0.0 in /  0 mm
00:55 18.1 °F /  -7.7 °C 14.0 °F /  -10 °C 1013.8 in /  34327.3 hPa Calm   1.6 mph /  2.6 km/h 77 % 0.0 in /  0 mm
01:05 18.1 °F /  -7.7 °C 14.2 °F /  -9.9 °C 1013.8 in /  34327.3 hPa SSW 1.6 mph /  2.6 km/h 1.6 mph /  2.6 km/h 78 % 0.0 in /  0 mm
01:15 18.0 °F /  -7.8 °C 14.1 °F /  -9.9 °C 1013.8 in /  34327.3 hPa Calm     78 % 0.0 in /  0 mm
01:25 18.0 °F /  -7.8 °C 14.1 °F /  -9.9 °C 1013.8 in /  34327.3 hPa Calm     78 % 0.0 in /  0 mm
01:35 18.0 °F /  -7.8 °C 14.1 °F /  -9.9 °C 1013.8 in /  34327.3 hPa Calm     78 % 0.0 in /  0 mm
01:45 18.0 °F /  -7.8 °C 14.1 °F /  -9.9 °C 1013.8 in /  34327.3 hPa Calm     78 % 0.0 in /  0 mm
01:55 18.0 °F /  -7.8 °C 14.1 °F /  -9.9 °C 1013.8 in /  34327.3 hPa Calm     78 % 0.0 in /  0 mm
02:05 18.1 °F /  -7.7 °C 14.4 °F /  -9.8 °C 1013.8 in /  34327.3 hPa Calm     79 % 0.0 in /  0 mm
02:15 18.4 °F /  -7.6 °C 14.7 °F /  -9.6 °C 1013.8 in /  34327.3 hPa Calm     79 % 0.0 in /  0 mm
02:25 18.6 °F /  -7.4 °C 14.7 °F /  -9.6 °C 1013.8 in /  34327.3 hPa Calm   3.2 mph /  5.1 km/h 78 % 0.0 in /  0 mm
02:35 18.6 °F /  -7.4 °C 14.7 °F /  -9.6 °C 1013.8 in /  34327.3 hPa SSW 1.6 mph /  2.6 km/h 3.2 mph /  5.1 km/h 78 % 0.0 in /  0 mm
02:45 18.8 °F /  -7.3 °C 14.9 °F /  -9.5 °C 1013.8 in /  34327.3 hPa SW 1.6 mph /  2.6 km/h 3.2 mph /  5.1 km/h 78 % 0.0 in /  0 mm
02:55 18.6 °F /  -7.4 °C 14.7 °F /  -9.6 °C 1013.8 in /  34327.3 hPa Calm   3.2 mph /  5.1 km/h 78 % 0.0 in /  0 mm
03:05 18.9 °F /  -7.3 °C 15.0 °F /  -9.4 °C 1013.8 in /  34327.3 hPa WSW 1.6 mph /  2.6 km/h 3.2 mph /  5.1 km/h 78 % 0.0 in /  0 mm
03:15 19.1 °F /  -7.2 °C 14.8 °F /  -9.6 °C 1013.8 in /  34327.3 hPa WSW 1.6 mph /  2.6 km/h 3.2 mph /  5.1 km/h 76 % 0.0 in /  0 mm
03:25 19.6 °F /  -6.9 °C 15.3 °F /  -9.3 °C 1012.8 in /  34293.4 hPa Calm   3.2 mph /  5.1 km/h 76 % 0.0 in /  0 mm
03:35 20.3 °F /  -6.5 °C 15.5 °F /  -9.2 °C 1013.8 in /  34327.3 hPa South 1.6 mph /  2.6 km/h 3.2 mph /  5.1 km/h 74 % 0.0 in /  0 mm
03:45 21.1 °F /  -6.1 °C 15.8 °F /  -9 °C 1013.8 in /  34327.3 hPa ENE 1.6 mph /  2.6 km/h 3.2 mph /  5.1 km/h 72 % 0.0 in /  0 mm
03:55 21.6 °F /  -5.8 °C 15.9 °F /  -8.9 °C 1013.8 in /  34327.3 hPa NE 1.6 mph /  2.6 km/h 3.2 mph /  5.1 km/h 70 % 0.0 in /  0 mm
04:05 22.0 °F /  -5.6 °C 15.8 °F /  -9 °C 1013.8 in /  34327.3 hPa ENE 3.2 mph /  5.1 km/h 3.2 mph /  5.1 km/h 68 % 0.0 in /  0 mm
04:15 22.9 °F /  -5.1 °C 16.4 °F /  -8.7 °C 1013.8 in /  34327.3 hPa ENE 1.6 mph /  2.6 km/h 1.6 mph /  2.6 km/h 67 % 0.0 in /  0 mm
04:25 23.4 °F /  -4.8 °C 16.7 °F /  -8.5 °C 1013.8 in /  34327.3 hPa Calm   1.6 mph /  2.6 km/h 66 % 0.0 in /  0 mm
04:35 23.5 °F /  -4.7 °C 16.6 °F /  -8.6 °C 1013.8 in /  34327.3 hPa ENE 1.6 mph /  2.6 km/h 4.8 mph /  7.7 km/h 65 % 0.0 in /  0 mm
04:45 24.0 °F /  -4.4 °C 16.5 °F /  -8.6 °C 1013.8 in /  34327.3 hPa SE 1.6 mph /  2.6 km/h 4.8 mph /  7.7 km/h 63 % 0.0 in /  0 mm
04:55 24.2 °F /  -4.3 °C 16.4 °F /  -8.7 °C 1013.8 in /  34327.3 hPa SSE 1.6 mph /  2.6 km/h 4.8 mph /  7.7 km/h 62 % 0.0 in /  0 mm
05:05 24.8 °F /  -4 °C 17.3 °F /  -8.2 °C 1013.8 in /  34327.3 hPa ESE 1.6 mph /  2.6 km/h 4.8 mph /  7.7 km/h 63 % 0.0 in /  0 mm
05:15 24.3 °F /  -4.3 °C 16.3 °F /  -8.7 °C 1013.8 in /  34327.3 hPa East 4.8 mph /  7.7 km/h 8.0 mph /  12.9 km/h 61 % 0.0 in /  0 mm
05:25 24.8 °F /  -4 °C 16.8 °F /  -8.4 °C 1012.8 in /  34293.4 hPa SE 3.2 mph /  5.1 km/h 4.8 mph /  7.7 km/h 61 % 0.0 in /  0 mm
10:25 25.2 °F /  -3.8 °C 16.6 °F /  -8.6 °C 1012.8 in /  34293.4 hPa SSE 7.4 mph /  11.9 km/h 7.4 mph /  11.9 km/h 59 % 0.0 in /  0 mm
10:30 25.8 °F /  -3.4 °C 17.2 °F /  -8.2 °C 1012.8 in /  34293.4 hPa SE 3.9 mph /  6.3 km/h   59 % 0.0 in /  0 mm
10:35 25.4 °F /  -3.7 °C 16.8 °F /  -8.4 °C 1012.8 in /  34293.4 hPa ESE 5.6 mph /  9 km/h 5.6 mph /  9 km/h 59 % 0.0 in /  0 mm
10:40 26.0 °F /  -3.3 °C 17.4 °F /  -8.1 °C 1012.8 in /  34293.4 hPa ESE 1.9 mph /  3.1 km/h 2.3 mph /  3.7 km/h 59 % 0.0 in /  0 mm
10:45 26.1 °F /  -3.3 °C 17.2 °F /  -8.2 °C 1012.8 in /  34293.4 hPa SSW 5.6 mph /  9 km/h 5.6 mph /  9 km/h 58 % 0.0 in /  0 mm
10:50 26.6 °F /  -3 °C 17.4 °F /  -8.1 °C 1013.8 in /  34327.3 hPa SW 2.3 mph /  3.7 km/h 2.3 mph /  3.7 km/h 57 % 0.0 in /  0 mm
10:55 26.9 °F /  -2.8 °C 17.4 °F /  -8.1 °C 1013.8 in /  34327.3 hPa NE 9.3 mph /  15 km/h 9.3 mph /  15 km/h 56 % 0.0 in /  0 mm
11:00 26.6 °F /  -3 °C 17.1 °F /  -8.3 °C 1013.8 in /  34327.3 hPa East 5.8 mph /  9.3 km/h 5.8 mph /  9.3 km/h 56 % 0.0 in /  0 mm
11:05 26.4 °F /  -3.1 °C 16.9 °F /  -8.4 °C 1013.8 in /  34327.3 hPa NW 3.7 mph /  6 km/h 3.7 mph /  6 km/h 56 % 0.0 in /  0 mm
11:06 26.4 °F /  -3.1 °C 16.9 °F /  -8.4 °C 1013.8 in /  34327.3 hPa NW 3.7 mph /  6 km/h 3.7 mph /  6 km/h 56 % 0.0 in /  0 mm
11:11 26.9 °F /  -2.8 °C 17.4 °F /  -8.1 °C 1013.8 in /  34327.3 hPa SW 6.9 mph /  11.1 km/h 6.9 mph /  11.1 km/h 56 % 0.0 in /  0 mm
11:16 27.0 °F /  -2.8 °C 16.9 °F /  -8.4 °C 1013.8 in /  34327.3 hPa NNW 9.3 mph /  15 km/h 9.3 mph /  15 km/h 54 % 0.0 in /  0 mm
11:21 27.5 °F /  -2.5 °C 17.1 °F /  -8.3 °C 1013.8 in /  34327.3 hPa SSE 3.7 mph /  6 km/h 3.7 mph /  6 km/h 53 % 0.0 in /  0 mm
11:26 27.9 °F /  -2.3 °C 17.1 °F /  -8.3 °C 1013.8 in /  34327.3 hPa SW 7.4 mph /  11.9 km/h 7.4 mph /  11.9 km/h 52 % 0.0 in /  0 mm
11:31 28.6 °F /  -1.9 °C 17.8 °F /  -7.9 °C 1013.8 in /  34327.3 hPa WSW 4.7 mph /  7.6 km/h 4.7 mph /  7.6 km/h 52 % 0.0 in /  0 mm
11:36 28.2 °F /  -2.1 °C 17.1 °F /  -8.3 °C 1012.8 in /  34293.4 hPa South 3.7 mph /  6 km/h 3.7 mph /  6 km/h 51 % 0.0 in /  0 mm
11:41 27.9 °F /  -2.3 °C 16.8 °F /  -8.4 °C 1012.8 in /  34293.4 hPa SW 9.5 mph /  15.3 km/h 9.5 mph /  15.3 km/h 51 % 0.0 in /  0 mm
11:46 28.9 °F /  -1.7 °C 17.4 °F /  -8.1 °C 1012.8 in /  34293.4 hPa SW 3.7 mph /  6 km/h 3.7 mph /  6 km/h 50 % 0.0 in /  0 mm
11:51 29.0 °F /  -1.7 °C 17.2 °F /  -8.2 °C 1012.8 in /  34293.4 hPa WSW 9.3 mph /  15 km/h 9.3 mph /  15 km/h 49 % 0.0 in /  0 mm
11:56 29.7 °F /  -1.3 °C 17.5 °F /  -8.1 °C 1012.8 in /  34293.4 hPa SW 11.9 mph /  19.2 km/h 11.9 mph /  19.2 km/h 48 % 0.0 in /  0 mm
12:01 29.9 °F /  -1.2 °C 17.4 °F /  -8.1 °C 1012.8 in /  34293.4 hPa WSW 3.7 mph /  6 km/h 3.7 mph /  6 km/h 47 % 0.0 in /  0 mm
12:06 30.3 °F /  -0.9 °C 17.7 °F /  -7.9 °C 1012.8 in /  34293.4 hPa SSW 5.6 mph /  9 km/h 5.6 mph /  9 km/h 47 % 0.0 in /  0 mm
12:11 29.7 °F /  -1.3 °C 17.2 °F /  -8.2 °C 1012.8 in /  34293.4 hPa WNW 13.0 mph /  20.9 km/h 13.0 mph /  20.9 km/h 47 % 0.0 in /  0 mm
12:16 29.4 °F /  -1.4 °C 16.6 °F /  -8.6 °C 1012.8 in /  34293.4 hPa SW 7.6 mph /  12.2 km/h 7.6 mph /  12.2 km/h 46 % 0.0 in /  0 mm
12:21 29.5 °F /  -1.4 °C 16.7 °F /  -8.5 °C 1012.8 in /  34293.4 hPa South 11.1 mph /  17.9 km/h 11.1 mph /  17.9 km/h 46 % 0.0 in /  0 mm
12:26 29.7 °F /  -1.3 °C 16.8 °F /  -8.4 °C 1012.8 in /  34293.4 hPa South 9.5 mph /  15.3 km/h 9.5 mph /  15.3 km/h 46 % 0.0 in /  0 mm
12:31 30.4 °F /  -0.9 °C 17.1 °F /  -8.3 °C 1012.8 in /  34293.4 hPa SSW 11.1 mph /  17.9 km/h 11.1 mph /  17.9 km/h 45 % 0.0 in /  0 mm
12:36 30.6 °F /  -0.8 °C 17.3 °F /  -8.2 °C 1012.8 in /  34293.4 hPa SW 5.8 mph /  9.3 km/h 5.8 mph /  9.3 km/h 45 % 0.0 in /  0 mm
12:41 30.8 °F /  -0.7 °C 17.5 °F /  -8.1 °C 1012.8 in /  34293.4 hPa SSE 7.4 mph /  11.9 km/h 7.4 mph /  11.9 km/h 45 % 0.0 in /  0 mm
12:46 30.7 °F /  -0.7 °C 17.1 °F /  -8.3 °C 1012.8 in /  34293.4 hPa WSW 13.0 mph /  20.9 km/h 13.0 mph /  20.9 km/h 44 % 0.0 in /  0 mm
12:51 31.5 °F /  -0.3 °C 17.8 °F /  -7.9 °C 1011.7 in /  34256.2 hPa SW 9.3 mph /  15 km/h 9.3 mph /  15 km/h 44 % 0.0 in /  0 mm
12:56 31.8 °F /  -0.1 °C 18.1 °F /  -7.7 °C 1011.7 in /  34256.2 hPa West 5.6 mph /  9 km/h 5.6 mph /  9 km/h 44 % 0.0 in /  0 mm
13:01 31.6 °F /  -0.2 °C 17.8 °F /  -7.9 °C 1011.7 in /  34256.2 hPa SW 7.4 mph /  11.9 km/h 7.4 mph /  11.9 km/h 44 % 0.0 in /  0 mm
13:06 31.9 °F /  -0.1 °C 17.4 °F /  -8.1 °C 1011.7 in /  34256.2 hPa SSE 6.1 mph /  9.8 km/h 6.1 mph /  9.8 km/h 42 % 0.0 in /  0 mm
13:11 31.5 °F /  -0.3 °C 17.1 °F /  -8.3 °C 1011.7 in /  34256.2 hPa South 7.4 mph /  11.9 km/h 7.4 mph /  11.9 km/h 42 % 0.0 in /  0 mm
13:16 31.7 °F /  -0.2 °C 17.2 °F /  -8.2 °C 1011.7 in /  34256.2 hPa NE 11.1 mph /  17.9 km/h 11.1 mph /  17.9 km/h 42 % 0.0 in /  0 mm
13:21 31.9 °F /  -0.1 °C 17.8 °F /  -7.9 °C 1010.7 in /  34222.3 hPa SSW 3.7 mph /  6 km/h 3.7 mph /  6 km/h 43 % 0.0 in /  0 mm
13:26 32.7 °F /  0.4 °C 18.5 °F /  -7.5 °C 1010.7 in /  34222.3 hPa South 5.6 mph /  9 km/h 5.6 mph /  9 km/h 43 % 0.0 in /  0 mm
13:31 33.3 °F /  0.7 °C 18.7 °F /  -7.4 °C 1010.7 in /  34222.3 hPa SSE 6.9 mph /  11.1 km/h 6.9 mph /  11.1 km/h 42 % 0.0 in /  0 mm
13:36 32.0 °F /  0 °C 17.8 °F /  -7.9 °C 1011.7 in /  34256.2 hPa ESE 11.4 mph /  18.3 km/h 11.4 mph /  18.3 km/h 43 % 0.0 in /  0 mm
13:41 31.6 °F /  -0.2 °C 17.8 °F /  -7.9 °C 1011.7 in /  34256.2 hPa WSW 13.0 mph /  20.9 km/h 13.0 mph /  20.9 km/h 44 % 0.0 in /  0 mm
13:46 32.3 °F /  0.2 °C 18.5 °F /  -7.5 °C 1011.7 in /  34256.2 hPa WNW 7.9 mph /  12.7 km/h 7.9 mph /  12.7 km/h 44 % 0.0 in /  0 mm
13:51 32.9 °F /  0.5 °C 19.1 °F /  -7.2 °C 1011.7 in /  34256.2 hPa SSW 10.0 mph /  16.1 km/h 10.0 mph /  16.1 km/h 44 % 0.0 in /  0 mm
13:56 32.8 °F /  0.4 °C 18.6 °F /  -7.4 °C 1011.7 in /  34256.2 hPa SSW 9.3 mph /  15 km/h 9.3 mph /  15 km/h 43 % 0.0 in /  0 mm
14:01 33.0 °F /  0.6 °C 18.8 °F /  -7.3 °C 1011.7 in /  34256.2 hPa SW 9.3 mph /  15 km/h 9.3 mph /  15 km/h 43 % 0.0 in /  0 mm
14:06 32.6 °F /  0.3 °C 18.4 °F /  -7.6 °C 1011.7 in /  34256.2 hPa SW 9.5 mph /  15.3 km/h 9.5 mph /  15.3 km/h 43 % 0.0 in /  0 mm
14:11 32.2 °F /  0.1 °C 18.1 °F /  -7.7 °C 1011.7 in /  34256.2 hPa SW 13.0 mph /  20.9 km/h 13.0 mph /  20.9 km/h 43 % 0.0 in /  0 mm
14:16 32.0 °F /  0 °C 17.8 °F /  -7.9 °C 1011.7 in /  34256.2 hPa SSW 13.0 mph /  20.9 km/h 13.0 mph /  20.9 km/h 43 % 0.0 in /  0 mm
14:21 32.0 °F /  0 °C 18.2 °F /  -7.7 °C 1011.7 in /  34256.2 hPa WSW 13.0 mph /  20.9 km/h 13.0 mph /  20.9 km/h 44 % 0.0 in /  0 mm
14:26 32.7 °F /  0.4 °C 18.8 °F /  -7.3 °C 1011.7 in /  34256.2 hPa SW 11.9 mph /  19.2 km/h 11.9 mph /  19.2 km/h 44 % 0.0 in /  0 mm
14:31 31.8 °F /  -0.1 °C 18.1 °F /  -7.7 °C 1011.7 in /  34256.2 hPa SW 13.0 mph /  20.9 km/h 13.0 mph /  20.9 km/h 44 % 0.0 in /  0 mm
14:36 32.2 °F /  0.1 °C 18.4 °F /  -7.6 °C 1011.7 in /  34256.2 hPa WSW 14.8 mph /  23.8 km/h 14.8 mph /  23.8 km/h 44 % 0.0 in /  0 mm
14:41 32.2 °F /  0.1 °C 18.4 °F /  -7.6 °C 1011.7 in /  34256.2 hPa SSW 13.0 mph /  20.9 km/h 13.0 mph /  20.9 km/h 44 % 0.0 in /  0 mm
14:46 32.9 °F /  0.5 °C 19.1 °F /  -7.2 °C 1011.7 in /  34256.2 hPa WSW 9.3 mph /  15 km/h 9.3 mph /  15 km/h 44 % 0.0 in /  0 mm
14:51 32.9 °F /  0.5 °C 19.1 °F /  -7.2 °C 1011.7 in /  34256.2 hPa SSE 3.7 mph /  6 km/h 3.7 mph /  6 km/h 44 % 0.0 in /  0 mm
14:56 33.0 °F /  0.6 °C 18.8 °F /  -7.3 °C 1011.7 in /  34256.2 hPa WSW 9.3 mph /  15 km/h 9.3 mph /  15 km/h 43 % 0.0 in /  0 mm
15:01 33.1 °F /  0.6 °C 19.2 °F /  -7.1 °C 1011.7 in /  34256.2 hPa WNW 7.4 mph /  11.9 km/h 7.4 mph /  11.9 km/h 44 % 0.0 in /  0 mm
15:06 33.0 °F /  0.6 °C 19.1 °F /  -7.2 °C 1011.7 in /  34256.2 hPa WSW 15.6 mph /  25.1 km/h 15.6 mph /  25.1 km/h 44 % 0.0 in /  0 mm
15:11 32.7 °F /  0.4 °C 18.8 °F /  -7.3 °C 1011.7 in /  34256.2 hPa West 14.8 mph /  23.8 km/h 14.8 mph /  23.8 km/h 44 % 0.0 in /  0 mm
15:16 32.8 °F /  0.4 °C 18.9 °F /  -7.3 °C 1011.7 in /  34256.2 hPa SW 5.6 mph /  9 km/h 5.6 mph /  9 km/h 44 % 0.0 in /  0 mm
15:21 33.1 °F /  0.6 °C 19.2 °F /  -7.1 °C 1010.7 in /  34222.3 hPa SW 11.1 mph /  17.9 km/h 11.1 mph /  17.9 km/h 44 % 0.0 in /  0 mm
15:26 32.8 °F /  0.4 °C 18.9 °F /  -7.3 °C 1010.7 in /  34222.3 hPa SSW 9.3 mph /  15 km/h 9.3 mph /  15 km/h 44 % 0.0 in /  0 mm
15:31 33.2 °F /  0.7 °C 18.9 °F /  -7.3 °C 1010.7 in /  34222.3 hPa WSW 14.8 mph /  23.8 km/h 14.8 mph /  23.8 km/h 43 % 0.0 in /  0 mm
15:36 32.7 °F /  0.4 °C 18.8 °F /  -7.3 °C 1010.7 in /  34222.3 hPa South 14.8 mph /  23.8 km/h 14.8 mph /  23.8 km/h 44 % 0.0 in /  0 mm
15:41 32.2 °F /  0.1 °C 18.4 °F /  -7.6 °C 1010.7 in /  34222.3 hPa ESE 9.3 mph /  15 km/h 9.3 mph /  15 km/h 44 % 0.0 in /  0 mm
15:46 32.7 °F /  0.4 °C 18.8 °F /  -7.3 °C 1010.7 in /  34222.3 hPa SSW 11.1 mph /  17.9 km/h 11.1 mph /  17.9 km/h 44 % 0.0 in /  0 mm
15:51 32.4 °F /  0.2 °C 18.9 °F /  -7.3 °C 1010.7 in /  34222.3 hPa South 7.4 mph /  11.9 km/h 7.4 mph /  11.9 km/h 45 % 0.0 in /  0 mm
15:56 32.4 °F /  0.2 °C 18.9 °F /  -7.3 °C 1010.7 in /  34222.3 hPa SW 14.8 mph /  23.8 km/h 14.8 mph /  23.8 km/h 45 % 0.0 in /  0 mm
16:01 32.5 °F /  0.3 °C 19.1 °F /  -7.2 °C 1010.7 in /  34222.3 hPa SW 13.0 mph /  20.9 km/h 13.0 mph /  20.9 km/h 45 % 0.0 in /  0 mm
16:06 32.1 °F /  0.1 °C 18.7 °F /  -7.4 °C 1010.7 in /  34222.3 hPa SE 12.6 mph /  20.3 km/h 12.6 mph /  20.3 km/h 45 % 0.0 in /  0 mm
16:11 32.5 °F /  0.3 °C 19.1 °F /  -7.2 °C 1010.7 in /  34222.3 hPa SW 13.0 mph /  20.9 km/h 13.0 mph /  20.9 km/h 45 % 0.0 in /  0 mm
16:16 32.4 °F /  0.2 °C 18.9 °F /  -7.3 °C 1010.7 in /  34222.3 hPa SW 5.6 mph /  9 km/h 5.8 mph /  9.3 km/h 45 % 0.0 in /  0 mm
16:21 32.3 °F /  0.2 °C 18.8 °F /  -7.3 °C 1010.7 in /  34222.3 hPa SW 7.4 mph /  11.9 km/h 7.4 mph /  11.9 km/h 45 % 0.0 in /  0 mm
16:26 32.5 °F /  0.3 °C 19.1 °F /  -7.2 °C 1010.7 in /  34222.3 hPa SSW 11.1 mph /  17.9 km/h 11.1 mph /  17.9 km/h 45 % 0.0 in /  0 mm
16:31 32.2 °F /  0.1 °C 18.8 °F /  -7.3 °C 1010.7 in /  34222.3 hPa South 16.9 mph /  27.2 km/h 16.9 mph /  27.2 km/h 45 % 0.0 in /  0 mm
16:36 32.2 °F /  0.1 °C 18.4 °F /  -7.6 °C 1010.7 in /  34222.3 hPa West 8.7 mph /  14 km/h 8.7 mph /  14 km/h 44 % 0.0 in /  0 mm
16:41 32.1 °F /  0.1 °C 18.3 °F /  -7.6 °C 1010.7 in /  34222.3 hPa SSE 13.0 mph /  20.9 km/h 13.0 mph /  20.9 km/h 44 % 0.0 in /  0 mm
16:46 32.3 °F /  0.2 °C 18.5 °F /  -7.5 °C 1010.7 in /  34222.3 hPa SSE 14.8 mph /  23.8 km/h 14.8 mph /  23.8 km/h 44 % 0.0 in /  0 mm
16:51 32.6 °F /  0.3 °C 18.4 °F /  -7.6 °C 1010.7 in /  34222.3 hPa West 3.7 mph /  6 km/h 3.9 mph /  6.3 km/h 43 % 0.0 in /  0 mm
16:56 32.7 °F /  0.4 °C 18.5 °F /  -7.5 °C 1010.7 in /  34222.3 hPa SSW 9.3 mph /  15 km/h 9.3 mph /  15 km/h 43 % 0.0 in /  0 mm
17:01 32.2 °F /  0.1 °C 18.1 °F /  -7.7 °C 1010.7 in /  34222.3 hPa South 11.1 mph /  17.9 km/h 11.1 mph /  17.9 km/h 43 % 0.0 in /  0 mm
17:06 32.6 °F /  0.3 °C 18.4 °F /  -7.6 °C 1010.0 in /  34198.6 hPa SW 7.4 mph /  11.9 km/h 7.4 mph /  11.9 km/h 43 % 0.0 in /  0 mm
17:11 32.4 °F /  0.2 °C 17.8 °F /  -7.9 °C 1010.0 in /  34198.6 hPa SSW 10.0 mph /  16.1 km/h 10.0 mph /  16.1 km/h 42 % 0.0 in /  0 mm
17:16 32.3 °F /  0.2 °C 17.8 °F /  -7.9 °C 1010.0 in /  34198.6 hPa South 9.3 mph /  15 km/h 9.3 mph /  15 km/h 42 % 0.0 in /  0 mm
17:21 32.8 °F /  0.4 °C 18.2 °F /  -7.7 °C 1010.0 in /  34198.6 hPa South 9.3 mph /  15 km/h 9.3 mph /  15 km/h 42 % 0.0 in /  0 mm
17:26 32.4 °F /  0.2 °C 17.8 °F /  -7.9 °C 1010.0 in /  34198.6 hPa South 11.1 mph /  17.9 km/h 11.1 mph /  17.9 km/h 42 % 0.0 in /  0 mm
17:31 32.3 °F /  0.2 °C 17.8 °F /  -7.9 °C 1010.0 in /  34198.6 hPa SSW 7.4 mph /  11.9 km/h 7.4 mph /  11.9 km/h 42 % 0.0 in /  0 mm
17:32 32.3 °F /  0.2 °C 17.8 °F /  -7.9 °C 1010.0 in /  34198.6 hPa ESE 7.4 mph /  11.9 km/h 7.4 mph /  11.9 km/h 42 % 0.0 in /  0 mm
17:37 32.4 °F /  0.2 °C 17.8 °F /  -7.9 °C 1010.0 in /  34198.6 hPa SW 11.9 mph /  19.2 km/h 11.9 mph /  19.2 km/h 42 % 0.0 in /  0 mm
17:42 32.2 °F /  0.1 °C 17.7 °F /  -7.9 °C 1010.0 in /  34198.6 hPa South 7.4 mph /  11.9 km/h 7.4 mph /  11.9 km/h 42 % 0.0 in /  0 mm
17:47 32.5 °F /  0.3 °C 18.3 °F /  -7.6 °C 1010.0 in /  34198.6 hPa SW 7.4 mph /  11.9 km/h 7.4 mph /  11.9 km/h 43 % 0.0 in /  0 mm
17:52 31.7 °F /  -0.2 °C 17.6 °F /  -8 °C 1010.0 in /  34198.6 hPa WSW 7.9 mph /  12.7 km/h 7.9 mph /  12.7 km/h 43 % 0.0 in /  0 mm
17:57 31.6 °F /  -0.2 °C 17.8 °F /  -7.9 °C 1010.0 in /  34198.6 hPa SSE 9.3 mph /  15 km/h 9.3 mph /  15 km/h 44 % 0.0 in /  0 mm
18:02 31.9 °F /  -0.1 °C 18.1 °F /  -7.7 °C 1010.0 in /  34198.6 hPa SW 12.6 mph /  20.3 km/h 12.6 mph /  20.3 km/h 44 % 0.0 in /  0 mm
18:07 31.4 °F /  -0.3 °C 17.7 °F /  -7.9 °C 1010.0 in /  34198.6 hPa SSW 10.3 mph /  16.6 km/h 10.3 mph /  16.6 km/h 44 % 0.0 in /  0 mm
18:12 31.4 °F /  -0.3 °C 18.1 °F /  -7.7 °C 1010.0 in /  34198.6 hPa SW 11.1 mph /  17.9 km/h 11.1 mph /  17.9 km/h 45 % 0.0 in /  0 mm
18:17 31.3 °F /  -0.4 °C 17.9 °F /  -7.8 °C 1010.0 in /  34198.6 hPa South 7.4 mph /  11.9 km/h 7.4 mph /  11.9 km/h 45 % 0.0 in /  0 mm
18:22 31.1 °F /  -0.5 °C 17.8 °F /  -7.9 °C 1010.0 in /  34198.6 hPa SW 13.0 mph /  20.9 km/h 13.0 mph /  20.9 km/h 45 % 0.0 in /  0 mm
18:27 31.0 °F /  -0.6 °C 17.7 °F /  -7.9 °C 1010.0 in /  34198.6 hPa South 18.5 mph /  29.8 km/h 18.5 mph /  29.8 km/h 45 % 0.0 in /  0 mm
18:32 30.7 °F /  -0.7 °C 17.8 °F /  -7.9 °C 1010.0 in /  34198.6 hPa SSW 14.8 mph /  23.8 km/h 14.8 mph /  23.8 km/h 46 % 0.0 in /  0 mm
18:37 30.7 °F /  -0.7 °C 17.8 °F /  -7.9 °C 1010.0 in /  34198.6 hPa SW 13.0 mph /  20.9 km/h 13.0 mph /  20.9 km/h 46 % 0.0 in /  0 mm
18:42 30.6 °F /  -0.8 °C 17.7 °F /  -7.9 °C 1010.0 in /  34198.6 hPa SE 9.7 mph /  15.6 km/h 9.7 mph /  15.6 km/h 46 % 0.0 in /  0 mm
18:47 30.6 °F /  -0.8 °C 17.7 °F /  -7.9 °C 1010.0 in /  34198.6 hPa South 13.0 mph /  20.9 km/h 13.0 mph /  20.9 km/h 46 % 0.0 in /  0 mm
18:52 30.2 °F /  -1 °C 17.3 °F /  -8.2 °C 1010.0 in /  34198.6 hPa SW 13.0 mph /  20.9 km/h 13.0 mph /  20.9 km/h 46 % 0.0 in /  0 mm
18:57 30.4 °F /  -0.9 °C 17.5 °F /  -8.1 °C 1010.0 in /  34198.6 hPa SSW 11.1 mph /  17.9 km/h 11.1 mph /  17.9 km/h 46 % 0.0 in /  0 mm
19:02 30.3 °F /  -0.9 °C 17.4 °F /  -8.1 °C 1010.0 in /  34198.6 hPa WSW 11.1 mph /  17.9 km/h 11.1 mph /  17.9 km/h 46 % 0.0 in /  0 mm
19:07 30.3 °F /  -0.9 °C 17.4 °F /  -8.1 °C 1010.0 in /  34198.6 hPa South 13.0 mph /  20.9 km/h 13.0 mph /  20.9 km/h 46 % 0.0 in /  0 mm
19:12 30.4 °F /  -0.9 °C 17.5 °F /  -8.1 °C 1010.0 in /  34198.6 hPa SSW 9.3 mph /  15 km/h 9.3 mph /  15 km/h 46 % 0.0 in /  0 mm
19:17 30.3 °F /  -0.9 °C 17.4 °F /  -8.1 °C 1010.0 in /  34198.6 hPa SSW 13.0 mph /  20.9 km/h 13.0 mph /  20.9 km/h 46 % 0.0 in /  0 mm
19:22 30.0 °F /  -1.1 °C 17.1 °F /  -8.3 °C 1010.0 in /  34198.6 hPa South 7.4 mph /  11.9 km/h 7.4 mph /  11.9 km/h 46 % 0.0 in /  0 mm
19:27 29.9 °F /  -1.2 °C 17.4 °F /  -8.1 °C 1010.0 in /  34198.6 hPa South 7.4 mph /  11.9 km/h 7.4 mph /  11.9 km/h 47 % 0.0 in /  0 mm
19:32 29.8 °F /  -1.2 °C 17.3 °F /  -8.2 °C 1010.0 in /  34198.6 hPa SSW 7.9 mph /  12.7 km/h 7.9 mph /  12.7 km/h 47 % 0.0 in /  0 mm
19:37 29.6 °F /  -1.3 °C 17.1 °F /  -8.3 °C 1010.0 in /  34198.6 hPa SW 7.4 mph /  11.9 km/h 7.4 mph /  11.9 km/h 47 % 0.0 in /  0 mm
19:42 29.5 °F /  -1.4 °C 17.0 °F /  -8.3 °C 1010.0 in /  34198.6 hPa WSW 7.4 mph /  11.9 km/h 7.4 mph /  11.9 km/h 47 % 0.0 in /  0 mm
19:47 29.4 °F /  -1.4 °C 16.9 °F /  -8.4 °C 1010.0 in /  34198.6 hPa SSW 7.4 mph /  11.9 km/h 7.4 mph /  11.9 km/h 47 % 0.0 in /  0 mm
19:52 29.3 °F /  -1.5 °C 16.8 °F /  -8.4 °C 1010.0 in /  34198.6 hPa SW 5.6 mph /  9 km/h 5.6 mph /  9 km/h 47 % 0.0 in /  0 mm
19:57 29.2 °F /  -1.6 °C 16.7 °F /  -8.5 °C 1010.0 in /  34198.6 hPa SW 10.0 mph /  16.1 km/h 10.0 mph /  16.1 km/h 47 % 0.0 in /  0 mm
20:02 28.9 °F /  -1.7 °C 17.1 °F /  -8.3 °C 1010.0 in /  34198.6 hPa SW 6.9 mph /  11.1 km/h 6.9 mph /  11.1 km/h 49 % 0.0 in /  0 mm
20:07 28.7 °F /  -1.8 °C 17.2 °F /  -8.2 °C 1009.0 in /  34164.7 hPa West 9.3 mph /  15 km/h 9.3 mph /  15 km/h 50 % 0.0 in /  0 mm
20:12 28.6 °F /  -1.9 °C 17.2 °F /  -8.2 °C 1009.0 in /  34164.7 hPa SW 5.6 mph /  9 km/h 5.6 mph /  9 km/h 50 % 0.0 in /  0 mm
20:17 28.6 °F /  -1.9 °C 17.4 °F /  -8.1 °C 1009.0 in /  34164.7 hPa SSW 9.3 mph /  15 km/h 9.3 mph /  15 km/h 51 % 0.0 in /  0 mm
20:22 28.4 °F /  -2 °C 17.3 °F /  -8.2 °C 1009.0 in /  34164.7 hPa SSW 7.4 mph /  11.9 km/h 7.4 mph /  11.9 km/h 51 % 0.0 in /  0 mm
20:27 28.3 °F /  -2.1 °C 17.5 °F /  -8.1 °C 1009.0 in /  34164.7 hPa SW 7.6 mph /  12.2 km/h   52 % 0.0 in /  0 mm
20:32 28.2 °F /  -2.1 °C 17.7 °F /  -7.9 °C 1009.0 in /  34164.7 hPa WSW 3.7 mph /  6 km/h 3.9 mph /  6.3 km/h 53 % 0.0 in /  0 mm
20:33 28.2 °F /  -2.1 °C 17.7 °F /  -7.9 °C 1009.0 in /  34164.7 hPa WSW 3.7 mph /  6 km/h 3.9 mph /  6.3 km/h 53 % 0.0 in /  0 mm
20:35 23.3 °F /  -4.8 °C 19.1 °F /  -7.2 °C 1013.8 in /  34327.3 hPa Calm   1.6 mph /  2.6 km/h 77 % 0.0 in /  0 mm
20:38 28.1 °F /  -2.2 °C 17.6 °F /  -8 °C 1010.0 in /  34198.6 hPa SSW 5.6 mph /  9 km/h 5.6 mph /  9 km/h 53 % 0.0 in /  0 mm
20:43 28.0 °F /  -2.2 °C 17.8 °F /  -7.9 °C 1010.0 in /  34198.6 hPa SSW 5.0 mph /  8 km/h 5.0 mph /  8 km/h 54 % 0.0 in /  0 mm
20:45 23.2 °F /  -4.9 °C 19.2 °F /  -7.1 °C 1013.8 in /  34327.3 hPa NNE 3.2 mph /  5.1 km/h 4.8 mph /  7.7 km/h 78 % 0.0 in /  0 mm
20:48 27.7 °F /  -2.4 °C 17.6 °F /  -8 °C 1010.0 in /  34198.6 hPa WSW 5.6 mph /  9 km/h 5.6 mph /  9 km/h 54 % 0.0 in /  0 mm
20:53 27.5 °F /  -2.5 °C 17.7 °F /  -7.9 °C 1010.0 in /  34198.6 hPa SW 3.7 mph /  6 km/h 3.7 mph /  6 km/h 55 % 0.0 in /  0 mm
20:55 23.1 °F /  -4.9 °C 19.1 °F /  -7.2 °C 1013.8 in /  34327.3 hPa NE 1.6 mph /  2.6 km/h 3.2 mph /  5.1 km/h 78 % 0.0 in /  0 mm
20:58 27.4 °F /  -2.6 °C 17.8 °F /  -7.9 °C 1010.0 in /  34198.6 hPa SW 5.6 mph /  9 km/h 5.6 mph /  9 km/h 56 % 0.0 in /  0 mm
21:03 27.2 °F /  -2.7 °C 17.7 °F /  -7.9 °C 1010.0 in /  34198.6 hPa West 11.1 mph /  17.9 km/h 11.1 mph /  17.9 km/h 56 % 0.0 in /  0 mm
21:05 23.0 °F /  -5 °C 19.2 °F /  -7.1 °C 1013.8 in /  34327.3 hPa Calm   1.6 mph /  2.6 km/h 79 % 0.0 in /  0 mm
21:08 27.1 °F /  -2.7 °C 17.8 °F /  -7.9 °C 1010.0 in /  34198.6 hPa SSW 7.4 mph /  11.9 km/h 7.4 mph /  11.9 km/h 57 % 0.0 in /  0 mm
21:13 26.9 °F /  -2.8 °C 17.9 °F /  -7.8 °C 1010.0 in /  34198.6 hPa SW 5.6 mph /  9 km/h 5.6 mph /  9 km/h 58 % 0.0 in /  0 mm
21:15 22.9 °F /  -5.1 °C 19.3 °F /  -7.1 °C 1013.8 in /  34327.3 hPa Calm   1.6 mph /  2.6 km/h 80 % 0.0 in /  0 mm
21:18 26.8 °F /  -2.9 °C 17.8 °F /  -7.9 °C 1010.0 in /  34198.6 hPa SW 7.4 mph /  11.9 km/h 7.4 mph /  11.9 km/h 58 % 0.0 in /  0 mm
21:23 26.7 °F /  -2.9 °C 17.8 °F /  -7.9 °C 1010.0 in /  34198.6 hPa SW 5.6 mph /  9 km/h 5.8 mph /  9.3 km/h 58 % 0.0 in /  0 mm
21:25 22.8 °F /  -5.1 °C 18.9 °F /  -7.3 °C 1013.8 in /  34327.3 hPa NE 1.6 mph /  2.6 km/h 1.6 mph /  2.6 km/h 79 % 0.0 in /  0 mm
21:28 26.5 °F /  -3.1 °C 17.8 °F /  -7.9 °C 1010.0 in /  34198.6 hPa SSW 5.3 mph /  8.5 km/h 5.3 mph /  8.5 km/h 59 % 0.0 in /  0 mm
21:33 26.4 °F /  -3.1 °C 17.7 °F /  -7.9 °C 1010.0 in /  34198.6 hPa SW 5.6 mph /  9 km/h 5.6 mph /  9 km/h 59 % 0.0 in /  0 mm
21:35 22.7 °F /  -5.2 °C 18.9 °F /  -7.3 °C 1013.8 in /  34327.3 hPa Calm   1.6 mph /  2.6 km/h 79 % 0.0 in /  0 mm
21:38 26.2 °F /  -3.2 °C 17.6 °F /  -8 °C 1010.7 in /  34222.3 hPa SW 5.6 mph /  9 km/h 5.6 mph /  9 km/h 59 % 0.0 in /  0 mm
21:43 26.1 °F /  -3.3 °C 17.7 °F /  -7.9 °C 1010.7 in /  34222.3 hPa WSW 3.7 mph /  6 km/h 3.7 mph /  6 km/h 60 % 0.0 in /  0 mm
21:45 22.5 °F /  -5.3 °C 18.9 °F /  -7.3 °C 1013.8 in /  34327.3 hPa Calm   1.6 mph /  2.6 km/h 80 % 0.0 in /  0 mm
21:48 26.0 °F /  -3.3 °C 17.6 °F /  -8 °C 1010.7 in /  34222.3 hPa SW 3.7 mph /  6 km/h 3.7 mph /  6 km/h 60 % 0.0 in /  0 mm
21:53 26.0 °F /  -3.3 °C 17.6 °F /  -8 °C 1010.7 in /  34222.3 hPa SW 3.7 mph /  6 km/h 3.7 mph /  6 km/h 60 % 0.0 in /  0 mm
21:55 22.4 °F /  -5.3 °C 18.8 °F /  -7.3 °C 1012.8 in /  34293.4 hPa Calm     80 % 0.0 in /  0 mm
21:58 25.9 °F /  -3.4 °C 17.8 °F /  -7.9 °C 1010.7 in /  34222.3 hPa WSW 1.9 mph /  3.1 km/h 2.3 mph /  3.7 km/h 61 % 0.0 in /  0 mm
22:03 25.9 °F /  -3.4 °C 17.8 °F /  -7.9 °C 1010.7 in /  34222.3 hPa SW 3.7 mph /  6 km/h 3.7 mph /  6 km/h 61 % 0.0 in /  0 mm
22:05 22.4 °F /  -5.3 °C 19.0 °F /  -7.2 °C 1013.8 in /  34327.3 hPa Calm     81 % 0.0 in /  0 mm
22:08 25.8 °F /  -3.4 °C 17.7 °F /  -7.9 °C 1011.7 in /  34256.2 hPa WSW 3.7 mph /  6 km/h 3.7 mph /  6 km/h 61 % 0.0 in /  0 mm
22:13 25.6 °F /  -3.6 °C 17.8 °F /  -7.9 °C 1011.7 in /  34256.2 hPa SW 3.5 mph /  5.6 km/h   62 % 0.0 in /  0 mm
22:15 22.4 °F /  -5.3 °C 19.0 °F /  -7.2 °C 1013.8 in /  34327.3 hPa Calm   1.6 mph /  2.6 km/h 81 % 0.0 in /  0 mm
22:18 25.6 °F /  -3.6 °C 17.8 °F /  -7.9 °C 1011.7 in /  34256.2 hPa SW 3.7 mph /  6 km/h 3.7 mph /  6 km/h 62 % 0.0 in /  0 mm
22:23 25.5 °F /  -3.6 °C 17.7 °F /  -7.9 °C 1011.7 in /  34256.2 hPa SW 3.7 mph /  6 km/h 3.7 mph /  6 km/h 62 % 0.0 in /  0 mm
22:25 22.3 °F /  -5.4 °C 18.9 °F /  -7.3 °C 1013.8 in /  34327.3 hPa Calm     81 % 0.0 in /  0 mm
22:28 25.5 °F /  -3.6 °C 17.7 °F /  -7.9 °C 1011.7 in /  34256.2 hPa SW 2.3 mph /  3.7 km/h 2.3 mph /  3.7 km/h 62 % 0.0 in /  0 mm
22:33 25.4 °F /  -3.7 °C 17.6 °F /  -8 °C 1011.7 in /  34256.2 hPa SW 3.7 mph /  6 km/h 3.7 mph /  6 km/h 62 % 0.0 in /  0 mm
22:35 22.2 °F /  -5.4 °C 19.0 °F /  -7.2 °C 1013.8 in /  34327.3 hPa Calm     82 % 0.0 in /  0 mm
22:38 25.2 °F /  -3.8 °C 17.7 °F /  -7.9 °C 1012.8 in /  34293.4 hPa SW 3.7 mph /  6 km/h 3.7 mph /  6 km/h 63 % 0.0 in /  0 mm
22:43 25.1 °F /  -3.8 °C 17.6 °F /  -8 °C 1012.8 in /  34293.4 hPa SW 1.9 mph /  3.1 km/h 1.9 mph /  3.1 km/h 63 % 0.0 in /  0 mm
22:45 22.2 °F /  -5.4 °C 19.0 °F /  -7.2 °C 1013.8 in /  34327.3 hPa Calm   1.6 mph /  2.6 km/h 82 % 0.0 in /  0 mm
22:48 25.1 °F /  -3.8 °C 17.8 °F /  -7.9 °C 1012.8 in /  34293.4 hPa SSW 3.7 mph /  6 km/h 3.7 mph /  6 km/h 64 % 0.0 in /  0 mm
22:53 24.9 °F /  -3.9 °C 18.1 °F /  -7.7 °C 1010.7 in /  34222.3 hPa Calm     66 % 0.0 in /  0 mm
22:55 22.2 °F /  -5.4 °C 19.0 °F /  -7.2 °C 1013.8 in /  34327.3 hPa Calm   1.6 mph /  2.6 km/h 82 % 0.0 in /  0 mm
22:58 24.9 °F /  -3.9 °C 18.1 °F /  -7.7 °C 1010.7 in /  34222.3 hPa WSW 1.9 mph /  3.1 km/h   66 % 0.0 in /  0 mm
23:03 24.9 °F /  -3.9 °C 18.1 °F /  -7.7 °C 1010.7 in /  34222.3 hPa WSW 4.7 mph /  7.6 km/h 4.7 mph /  7.6 km/h 66 % 0.0 in /  0 mm
23:05 22.1 °F /  -5.5 °C 18.9 °F /  -7.3 °C 1013.8 in /  34327.3 hPa Calm     82 % 0.0 in /  0 mm
23:08 24.8 °F /  -4 °C 18.0 °F /  -7.8 °C 1011.7 in /  34256.2 hPa WSW 5.6 mph /  9 km/h 5.6 mph /  9 km/h 66 % 0.0 in /  0 mm
23:13 24.7 °F /  -4.1 °C 18.2 °F /  -7.7 °C 1011.7 in /  34256.2 hPa SW 1.9 mph /  3.1 km/h 1.9 mph /  3.1 km/h 67 % 0.0 in /  0 mm
23:15 22.1 °F /  -5.5 °C 18.9 °F /  -7.3 °C 1013.8 in /  34327.3 hPa Calm     82 % 0.0 in /  0 mm
23:18 24.7 °F /  -4.1 °C 18.4 °F /  -7.6 °C 1011.7 in /  34256.2 hPa SW 1.9 mph /  3.1 km/h   68 % 0.0 in /  0 mm
23:23 24.6 °F /  -4.1 °C 18.6 °F /  -7.4 °C 1011.7 in /  34256.2 hPa Calm     69 % 0.0 in /  0 mm
23:25 22.1 °F /  -5.5 °C 19.1 °F /  -7.2 °C 1013.8 in /  34327.3 hPa Calm     83 % 0.0 in /  0 mm
23:28 24.5 °F /  -4.2 °C 18.4 °F /  -7.6 °C 1011.7 in /  34256.2 hPa Calm     69 % 0.0 in /  0 mm
23:33 24.5 °F /  -4.2 °C 18.7 °F /  -7.4 °C 1011.7 in /  34256.2 hPa NNE 1.9 mph /  3.1 km/h   70 % 0.0 in /  0 mm
23:35 22.0 °F /  -5.6 °C 19.0 °F /  -7.2 °C 1012.8 in /  34293.4 hPa NE 1.6 mph /  2.6 km/h 3.2 mph /  5.1 km/h 83 % 0.0 in /  0 mm
23:38 24.4 °F /  -4.2 °C 18.8 °F /  -7.3 °C 1012.8 in /  34293.4 hPa Calm     71 % 0.0 in /  0 mm
23:43 24.3 °F /  -4.3 °C 18.7 °F /  -7.4 °C 1012.8 in /  34293.4 hPa Calm     71 % 0.0 in /  0 mm
23:45 21.9 °F /  -5.6 °C 18.9 °F /  -7.3 °C 1012.8 in /  34293.4 hPa Calm     83 % 0.0 in /  0 mm
23:48 24.3 °F /  -4.3 °C 18.9 °F /  -7.3 °C 1012.8 in /  34293.4 hPa NNW 1.9 mph /  3.1 km/h   72 % 0.0 in /  0 mm
23:53 24.3 °F /  -4.3 °C 19.2 °F /  -7.1 °C 1012.8 in /  34293.4 hPa Calm     73 % 0.0 in /  0 mm
23:55 21.7 °F /  -5.7 °C 18.7 °F /  -7.4 °C 1012.8 in /  34293.4 hPa Calm     83 % 0.0 in /  0 mm
23:58 24.3 °F /  -4.3 °C 19.2 °F /  -7.1 °C 1012.8 in /  34293.4 hPa Calm     73 % 0.0 in /  0 mm
Meteo Sesrovires
Elogis d' Weather Underground - 1.5 mb

Guio original per  Jim McMurry - jmcmurry@mwt.net Adaptat per a la plantilla per  Wim van der Kuil - Leuven-Template.eu

Trobareu la nostra informacio del temps tambe a:

Weather Underground

AWEKAS